createdAt,value
2023-04-23T00:01:26.182Z,14.08
2023-04-23T00:03:57.915Z,14.07
2023-04-23T00:06:26.235Z,14.05
2023-04-23T00:08:53.522Z,14.02
2023-04-23T00:11:21.234Z,13.97
2023-04-23T00:13:48.899Z,13.92
2023-04-23T00:16:15.827Z,13.89
2023-04-23T00:18:42.748Z,13.85
2023-04-23T00:21:10.091Z,13.81
2023-04-23T00:23:37.927Z,13.79
2023-04-23T00:26:04.987Z,13.77
2023-04-23T00:28:31.766Z,13.76
2023-04-23T00:30:58.555Z,13.75
2023-04-23T00:33:26.264Z,13.76
2023-04-23T00:35:52.973Z,13.75
2023-04-23T00:38:20.714Z,13.74
2023-04-23T00:40:47.431Z,13.74
2023-04-23T00:43:15.100Z,13.75
2023-04-23T00:45:41.903Z,13.75
2023-04-23T00:48:08.636Z,13.75
2023-04-23T00:50:35.402Z,13.75
2023-04-23T00:53:02.436Z,13.73
2023-04-23T00:55:29.407Z,13.69
2023-04-23T00:57:56.111Z,13.64
2023-04-23T01:00:22.851Z,13.59
2023-04-23T01:02:50.021Z,13.56
2023-04-23T01:05:17.261Z,13.52
2023-04-23T01:07:44.865Z,13.47
2023-04-23T01:10:11.697Z,13.45
2023-04-23T01:12:38.894Z,13.44
2023-04-23T01:15:08.107Z,13.42
2023-04-23T01:17:34.927Z,13.41
2023-04-23T01:20:01.692Z,13.41
2023-04-23T01:22:28.856Z,13.41
2023-04-23T01:24:55.700Z,13.42
2023-04-23T01:27:24.282Z,13.41
2023-04-23T01:29:50.914Z,13.40
2023-04-23T01:32:18.253Z,13.40
2023-04-23T01:34:46.235Z,13.39
2023-04-23T01:37:13.031Z,13.37
2023-04-23T01:39:39.870Z,13.33
2023-04-23T01:42:06.752Z,13.30
2023-04-23T01:44:33.518Z,13.28
2023-04-23T01:47:00.266Z,13.26
2023-04-23T01:49:27.131Z,13.23
2023-04-23T01:51:53.854Z,13.22
2023-04-23T01:54:20.691Z,13.22
2023-04-23T01:56:54.059Z,13.20
2023-04-23T01:59:22.199Z,13.19
2023-04-23T02:01:49.075Z,13.17
2023-04-23T02:04:17.153Z,13.13
2023-04-23T02:06:46.419Z,13.08
2023-04-23T02:09:13.195Z,13.03
2023-04-23T02:11:40.044Z,12.99
2023-04-23T02:14:07.086Z,12.96
2023-04-23T02:16:34.574Z,12.92
2023-04-23T02:19:01.287Z,12.87
2023-04-23T02:21:27.978Z,12.82
2023-04-23T02:23:54.781Z,12.77
2023-04-23T02:26:22.227Z,12.73
2023-04-23T02:28:48.973Z,12.71
2023-04-23T02:31:16.030Z,12.72
2023-04-23T02:33:43.779Z,12.80
2023-04-23T02:36:11.764Z,12.87
2023-04-23T02:38:41.708Z,12.90
2023-04-23T02:41:08.648Z,12.90
2023-04-23T02:43:35.918Z,12.90
2023-04-23T02:46:07.748Z,12.88
2023-04-23T02:48:41.934Z,12.86
2023-04-23T02:51:09.795Z,12.85
2023-04-23T02:53:36.584Z,12.83
2023-04-23T02:56:03.474Z,12.81
2023-04-23T02:58:30.707Z,12.79
2023-04-23T03:00:58.721Z,12.77
2023-04-23T03:03:31.105Z,12.77
2023-04-23T03:05:58.542Z,12.76
2023-04-23T03:08:25.170Z,12.74
2023-04-23T03:10:51.820Z,12.72
2023-04-23T03:13:18.623Z,12.70
2023-04-23T03:15:45.291Z,12.71
2023-04-23T03:18:12.058Z,12.77
2023-04-23T03:20:38.957Z,12.85
2023-04-23T03:23:08.630Z,12.89
2023-04-23T03:25:35.581Z,12.92
2023-04-23T03:28:02.490Z,12.94
2023-04-23T03:30:29.742Z,12.95
2023-04-23T03:32:56.922Z,12.97
2023-04-23T03:35:24.334Z,12.96
2023-04-23T03:37:51.854Z,12.91
2023-04-23T03:40:19.277Z,12.86
2023-04-23T03:42:47.591Z,12.81
2023-04-23T03:45:16.087Z,12.79
2023-04-23T03:47:43.317Z,12.77
2023-04-23T03:50:12.241Z,12.77
2023-04-23T03:52:39.649Z,12.78
2023-04-23T03:55:08.052Z,12.78
2023-04-23T03:57:42.179Z,12.80
2023-04-23T04:00:18.715Z,12.79
2023-04-23T04:02:45.845Z,12.78
2023-04-23T04:05:13.236Z,12.78
2023-04-23T04:07:40.695Z,12.82
2023-04-23T04:10:07.648Z,12.91
2023-04-23T04:12:35.877Z,12.96
2023-04-23T04:15:03.426Z,12.99
2023-04-23T04:17:30.679Z,13.03
2023-04-23T04:19:57.367Z,13.05
2023-04-23T04:22:24.168Z,13.06
2023-04-23T04:24:52.048Z,13.09
2023-04-23T04:27:18.743Z,13.13
2023-04-23T04:29:45.613Z,13.16
2023-04-23T04:32:12.994Z,13.20
2023-04-23T04:34:40.012Z,13.24
2023-04-23T04:37:07.125Z,13.26
2023-04-23T04:39:34.297Z,13.28
2023-04-23T04:42:02.354Z,13.33
2023-04-23T04:44:30.092Z,13.39
2023-04-23T04:46:56.967Z,13.44
2023-04-23T04:49:23.671Z,13.48
2023-04-23T04:51:50.753Z,13.52
2023-04-23T04:54:17.524Z,13.50
2023-04-23T04:56:44.203Z,13.48
2023-04-23T04:59:11.125Z,13.50
2023-04-23T05:01:37.885Z,13.54
2023-04-23T05:04:05.088Z,13.60
2023-04-23T05:06:32.532Z,13.68
2023-04-23T05:08:59.413Z,13.76
2023-04-23T05:11:26.002Z,13.82
2023-04-23T05:13:52.706Z,13.88
2023-04-23T05:16:19.483Z,13.96
2023-04-23T05:18:46.182Z,14.04
2023-04-23T05:21:14.949Z,14.10
2023-04-23T05:23:41.602Z,14.15
2023-04-23T05:26:08.284Z,14.19
2023-04-23T05:28:35.507Z,14.23
2023-04-23T05:31:02.653Z,14.27
2023-04-23T05:33:33.546Z,14.31
2023-04-23T05:36:07.652Z,14.40
2023-04-23T05:38:34.382Z,14.50
2023-04-23T05:41:01.209Z,14.60
2023-04-23T05:43:27.908Z,14.67
2023-04-23T05:45:54.738Z,14.75
2023-04-23T05:48:21.406Z,14.83
2023-04-23T05:50:49.050Z,14.91
2023-04-23T05:53:15.761Z,14.97
2023-04-23T05:55:42.529Z,15.04
2023-04-23T05:58:09.218Z,15.11
2023-04-23T06:00:36.837Z,15.18
2023-04-23T06:03:03.873Z,15.25
2023-04-23T06:05:31.452Z,15.31
2023-04-23T06:07:58.251Z,15.37
2023-04-23T06:10:24.810Z,15.42
2023-04-23T06:12:53.567Z,15.48
2023-04-23T06:15:20.362Z,15.56
2023-04-23T06:17:47.147Z,15.65
2023-04-23T06:20:13.933Z,15.73
2023-04-23T06:22:40.715Z,15.82
2023-04-23T06:25:07.938Z,15.90
2023-04-23T06:27:34.835Z,15.96
2023-04-23T06:30:06.770Z,16.00
2023-04-23T06:32:34.021Z,16.01
2023-04-23T06:35:02.300Z,16.03
2023-04-23T06:37:31.080Z,16.08
2023-04-23T06:39:58.821Z,16.11
2023-04-23T06:42:25.549Z,16.13
2023-04-23T06:45:19.268Z,16.15
2023-04-23T06:47:46.178Z,16.17
2023-04-23T06:50:12.845Z,16.19
2023-04-23T06:52:40.434Z,16.21
2023-04-23T06:55:07.909Z,16.23
2023-04-23T06:57:35.690Z,16.25
2023-04-23T07:00:03.048Z,16.27
2023-04-23T07:02:34.346Z,16.30
2023-04-23T07:05:01.013Z,16.33
2023-04-23T07:07:28.170Z,16.35
2023-04-23T07:09:54.986Z,16.41
2023-04-23T07:12:21.596Z,16.48
2023-04-23T07:14:48.286Z,16.59
2023-04-23T07:17:15.111Z,16.67
2023-04-23T07:19:41.794Z,16.69
2023-04-23T07:22:08.452Z,16.68
2023-04-23T07:24:35.187Z,16.69
2023-04-23T07:27:02.211Z,16.72
2023-04-23T07:29:28.971Z,16.75
2023-04-23T07:31:56.023Z,16.79
2023-04-23T07:34:22.967Z,16.83
2023-04-23T07:36:49.910Z,16.86
2023-04-23T07:39:16.756Z,16.89
2023-04-23T07:41:43.532Z,16.91
2023-04-23T07:44:10.355Z,16.92
2023-04-23T07:46:37.010Z,16.93
2023-04-23T07:49:04.098Z,16.97
2023-04-23T07:51:31.392Z,17.00
2023-04-23T07:53:58.402Z,17.03
2023-04-23T07:56:25.243Z,17.08
2023-04-23T07:58:53.362Z,17.15
2023-04-23T08:01:21.187Z,17.21
2023-04-23T08:03:48.110Z,17.25
2023-04-23T08:06:14.990Z,17.28
2023-04-23T08:08:41.909Z,17.30
2023-04-23T08:11:08.702Z,17.32
2023-04-23T08:13:35.542Z,17.34
2023-04-23T08:16:02.362Z,17.36
2023-04-23T08:18:29.206Z,17.40
2023-04-23T08:20:56.883Z,17.45
2023-04-23T08:23:23.908Z,17.51
2023-04-23T08:25:50.741Z,17.57
2023-04-23T08:28:18.662Z,17.63
2023-04-23T08:30:45.970Z,17.67
2023-04-23T08:33:13.229Z,17.71
2023-04-23T08:35:39.945Z,17.77
2023-04-23T08:38:06.597Z,17.87
2023-04-23T08:40:35.838Z,17.99
2023-04-23T08:43:04.385Z,18.15
2023-04-23T08:45:31.096Z,18.29
2023-04-23T08:48:01.600Z,18.43
2023-04-23T08:50:29.116Z,18.56
2023-04-23T08:52:57.196Z,18.64
2023-04-23T08:55:23.963Z,18.72
2023-04-23T08:57:51.021Z,18.78
2023-04-23T09:00:19.117Z,18.81
2023-04-23T09:02:46.947Z,18.84
2023-04-23T09:05:14.001Z,18.87
2023-04-23T09:07:41.232Z,18.95
2023-04-23T09:10:08.981Z,19.09
2023-04-23T09:12:35.797Z,19.24
2023-04-23T09:15:09.869Z,19.38
2023-04-23T09:17:44.545Z,19.51
2023-04-23T09:20:12.177Z,19.57
2023-04-23T09:22:50.157Z,19.60
2023-04-23T09:25:18.360Z,19.63
2023-04-23T09:27:54.925Z,19.66
2023-04-23T09:30:22.831Z,19.70
2023-04-23T09:32:49.877Z,19.74
2023-04-23T09:35:17.044Z,19.76
2023-04-23T09:37:48.125Z,19.78
2023-04-23T09:40:19.491Z,19.80
2023-04-23T09:42:50.400Z,19.83
2023-04-23T09:45:17.065Z,19.86
2023-04-23T09:47:50.962Z,19.90
2023-04-23T09:50:18.561Z,19.92
2023-04-23T09:52:45.455Z,19.94
2023-04-23T09:55:12.274Z,19.97
2023-04-23T09:57:43.059Z,20.02
2023-04-23T10:00:18.380Z,20.06
2023-04-23T10:02:49.115Z,20.09
2023-04-23T10:05:24.498Z,20.13
2023-04-23T10:07:55.829Z,20.17
2023-04-23T10:10:22.793Z,20.24
2023-04-23T10:12:54.849Z,20.34
2023-04-23T10:15:26.241Z,20.42
2023-04-23T10:17:54.194Z,20.50
2023-04-23T10:20:24.010Z,20.59
2023-04-23T10:22:50.970Z,20.69
2023-04-23T10:25:17.927Z,20.79
2023-04-23T10:27:53.981Z,20.92
2023-04-23T10:30:21.870Z,21.08
2023-04-23T10:32:49.169Z,21.25
2023-04-23T10:35:16.133Z,21.42
2023-04-23T10:37:42.824Z,21.55
2023-04-23T10:40:13.648Z,21.62
2023-04-23T10:42:40.757Z,21.70
2023-04-23T10:47:47.183Z,21.86
2023-04-23T10:50:57.582Z,21.94
2023-04-23T10:53:27.598Z,22.02
2023-04-23T10:56:07.083Z,22.08
2023-04-23T10:58:50.649Z,22.16
2023-04-23T11:01:18.089Z,22.28
2023-04-23T11:03:45.379Z,22.42
2023-04-23T11:06:14.973Z,22.57
2023-04-23T11:08:55.905Z,22.73
2023-04-23T11:11:41.971Z,22.81
2023-04-23T11:14:14.681Z,22.84
2023-04-23T11:16:41.379Z,22.91
2023-04-23T11:32:36.593Z,23.63
2023-04-23T11:35:04.801Z,24.32
2023-04-23T11:37:31.738Z,24.35
2023-04-23T11:39:58.726Z,24.35
2023-04-23T11:42:25.425Z,24.31
2023-04-23T11:44:52.218Z,24.29
2023-04-23T11:47:18.977Z,24.32
2023-04-23T11:49:45.986Z,24.31
2023-04-23T11:52:13.814Z,24.33
2023-04-23T11:54:41.507Z,24.38
2023-04-23T11:57:08.318Z,24.46
2023-04-23T11:59:35.304Z,24.57
2023-04-23T12:02:02.202Z,24.70
2023-04-23T12:04:30.007Z,24.71
2023-04-23T12:06:57.442Z,24.55
2023-04-23T12:09:26.411Z,24.35
2023-04-23T12:11:53.269Z,24.18
2023-04-23T12:14:23.395Z,24.17
2023-04-23T12:16:52.960Z,24.28
2023-04-23T12:19:30.452Z,24.45
2023-04-23T12:22:01.637Z,24.55
2023-04-23T12:24:45.321Z,24.57
2023-04-23T12:27:15.050Z,24.56
2023-04-23T12:29:41.913Z,24.65
2023-04-23T12:32:10.251Z,24.84
2023-04-23T12:34:37.778Z,25.05
2023-04-23T12:37:05.914Z,25.21
2023-04-23T12:39:33.806Z,25.34
2023-04-23T12:42:09.158Z,25.45
2023-04-23T12:44:36.605Z,25.54
2023-04-23T12:47:07.400Z,25.53
2023-04-23T12:49:35.307Z,25.52
2023-04-23T12:52:03.170Z,25.50
2023-04-23T12:54:31.380Z,25.37
2023-04-23T12:57:02.136Z,25.06
2023-04-23T12:59:29.431Z,24.75
2023-04-23T13:01:56.309Z,24.47
2023-04-23T13:04:23.094Z,24.24
2023-04-23T13:06:50.789Z,24.09
2023-04-23T13:09:17.562Z,23.99
2023-04-23T13:11:46.415Z,23.90
2023-04-23T13:14:13.196Z,23.83
2023-04-23T13:16:40.332Z,23.73
2023-04-23T13:19:07.522Z,23.61
2023-04-23T13:21:34.549Z,23.51
2023-04-23T13:24:01.670Z,23.46
2023-04-23T13:26:31.406Z,23.39
2023-04-23T13:28:58.967Z,23.32
2023-04-23T13:31:25.788Z,23.25
2023-04-23T13:33:52.690Z,23.20
2023-04-23T13:36:19.365Z,23.15
2023-04-23T13:38:46.352Z,23.11
2023-04-23T13:41:13.242Z,23.07
2023-04-23T13:43:39.997Z,23.06
2023-04-23T13:46:06.726Z,23.04
2023-04-23T13:48:33.848Z,23.03
2023-04-23T13:51:00.849Z,23.04
2023-04-23T13:53:27.780Z,23.05
2023-04-23T13:55:55.373Z,23.04
2023-04-23T13:58:22.876Z,23.04
2023-04-23T14:00:49.619Z,23.03
2023-04-23T14:03:16.657Z,23.02
2023-04-23T14:05:43.673Z,23.04
2023-04-23T14:08:10.595Z,23.07
2023-04-23T14:10:37.293Z,23.08
2023-04-23T14:13:04.227Z,23.13
2023-04-23T14:15:31.047Z,23.18
2023-04-23T14:17:59.081Z,23.27
2023-04-23T14:20:25.882Z,23.50
2023-04-23T14:23:01.031Z,24.47
2023-04-23T14:25:40.659Z,26.22
2023-04-23T14:28:27.577Z,28.15
2023-04-23T14:30:54.957Z,29.97
2023-04-23T14:33:21.821Z,31.41
2023-04-23T14:35:48.735Z,32.62
2023-04-23T14:38:15.492Z,33.65
2023-04-23T14:40:42.137Z,34.41
2023-04-23T14:45:41.073Z,35.57
2023-04-23T14:48:07.739Z,36.11
2023-04-23T14:50:35.140Z,36.62
2023-04-23T14:53:06.264Z,37.11
2023-04-23T14:55:33.434Z,37.60
2023-04-23T14:58:00.930Z,37.94
2023-04-23T15:00:27.920Z,38.12
2023-04-23T15:02:54.774Z,38.23
2023-04-23T15:05:21.563Z,38.27
2023-04-23T15:07:48.227Z,38.31
2023-04-23T15:10:14.940Z,38.36
2023-04-23T15:12:52.201Z,38.36
2023-04-23T15:15:48.872Z,38.27
2023-04-23T15:18:16.015Z,38.29
2023-04-23T15:20:42.845Z,38.25
2023-04-23T15:23:09.870Z,38.21
2023-04-23T15:25:36.923Z,38.25
2023-04-23T15:28:03.957Z,38.12
2023-04-23T15:30:30.813Z,37.90
2023-04-23T15:32:57.597Z,37.67
2023-04-23T15:35:24.967Z,37.39
2023-04-23T15:37:51.808Z,37.14
2023-04-23T15:40:18.440Z,36.87
2023-04-23T15:42:45.268Z,36.67
2023-04-23T15:45:12.264Z,36.50
2023-04-23T15:47:39.093Z,36.21
2023-04-23T15:50:06.666Z,35.91
2023-04-23T15:52:33.676Z,35.60
2023-04-23T15:55:00.556Z,35.26
2023-04-23T15:57:27.239Z,35.08
2023-04-23T15:59:55.084Z,34.85
2023-04-23T16:02:22.060Z,34.69
2023-04-23T16:04:50.610Z,34.56
2023-04-23T16:07:17.261Z,34.28
2023-04-23T16:09:44.382Z,33.95
2023-04-23T16:12:12.108Z,33.64
2023-04-23T16:14:39.539Z,33.34
2023-04-23T16:17:06.303Z,33.04
2023-04-23T16:19:33.228Z,32.67
2023-04-23T16:22:00.047Z,32.34
2023-04-23T16:24:26.864Z,31.97
2023-04-23T16:26:53.555Z,31.55
2023-04-23T16:29:22.513Z,31.31
2023-04-23T16:31:50.065Z,30.98
2023-04-23T16:34:16.982Z,30.51
2023-04-23T16:36:43.846Z,30.01
2023-04-23T16:39:10.644Z,29.47
2023-04-23T16:41:37.354Z,28.77
2023-04-23T16:44:04.129Z,28.10
2023-04-23T16:46:31.484Z,27.44
2023-04-23T16:48:58.685Z,26.84
2023-04-23T16:51:26.240Z,26.34
2023-04-23T16:53:52.908Z,25.84
2023-04-23T16:56:20.186Z,25.36
2023-04-23T16:58:46.888Z,24.95
2023-04-23T17:01:14.280Z,24.62
2023-04-23T17:03:41.140Z,24.30
2023-04-23T17:06:27.521Z,23.93
2023-04-23T17:08:54.764Z,23.56
2023-04-23T17:11:22.341Z,23.28
2023-04-23T17:13:49.072Z,23.04
2023-04-23T17:16:15.915Z,22.80
2023-04-23T17:18:42.703Z,22.54
2023-04-23T17:21:09.930Z,22.24
2023-04-23T17:23:36.770Z,21.99
2023-04-23T17:26:03.435Z,21.77
2023-04-23T17:28:30.709Z,21.57
2023-04-23T17:30:57.529Z,21.38
2023-04-23T17:33:24.565Z,21.20
2023-04-23T17:35:51.994Z,21.00
2023-04-23T17:38:20.313Z,20.79
2023-04-23T17:40:47.796Z,20.60
2023-04-23T17:43:14.954Z,20.38
2023-04-23T17:45:41.876Z,20.22
2023-04-23T17:48:08.780Z,20.12
2023-04-23T17:50:35.851Z,19.96
2023-04-23T17:53:03.287Z,19.77
2023-04-23T17:55:32.247Z,19.59
2023-04-23T17:58:05.912Z,19.39
2023-04-23T18:00:38.066Z,19.22
2023-04-23T18:03:05.736Z,19.14
2023-04-23T18:05:33.737Z,19.07
2023-04-23T18:08:00.721Z,19.01
2023-04-23T18:10:28.328Z,18.92
2023-04-23T18:12:55.390Z,18.77
2023-04-23T18:15:22.109Z,18.60
2023-04-23T18:17:49.640Z,18.43
2023-04-23T18:20:16.315Z,18.29
2023-04-23T18:22:43.633Z,18.14
2023-04-23T18:25:11.107Z,17.99
2023-04-23T18:27:38.518Z,17.89
2023-04-23T18:30:07.503Z,17.78
2023-04-23T18:32:38.242Z,17.68
2023-04-23T18:35:07.753Z,17.59
2023-04-23T18:37:42.560Z,17.53
2023-04-23T18:40:10.820Z,17.44
2023-04-23T18:42:37.960Z,17.32
2023-04-23T18:45:05.065Z,17.20
2023-04-23T18:47:57.672Z,17.08
2023-04-23T18:50:27.392Z,16.95
2023-04-23T18:52:54.939Z,16.78
2023-04-23T18:55:21.564Z,16.65
2023-04-23T18:57:48.308Z,16.54
2023-04-23T19:00:15.274Z,16.46
2023-04-23T19:02:42.040Z,16.40
2023-04-23T19:05:09.337Z,16.35
2023-04-23T19:07:39.630Z,16.27
2023-04-23T19:10:07.273Z,16.16
2023-04-23T19:12:34.103Z,16.07
2023-04-23T19:15:00.714Z,16.00
2023-04-23T19:17:27.438Z,15.92
2023-04-23T19:19:54.113Z,15.85
2023-04-23T19:22:24.346Z,15.77
2023-04-23T19:24:51.066Z,15.66
2023-04-23T19:27:17.671Z,15.58
2023-04-23T19:29:45.837Z,15.52
2023-04-23T19:32:12.724Z,15.42
2023-04-23T19:34:39.961Z,15.29
2023-04-23T19:37:06.756Z,15.18
2023-04-23T19:39:34.043Z,15.09
2023-04-23T19:42:01.996Z,14.99
2023-04-23T19:44:28.997Z,14.94
2023-04-23T19:46:55.930Z,14.90
2023-04-23T19:49:22.590Z,14.86
2023-04-23T19:51:53.711Z,14.82
2023-04-23T19:54:21.449Z,14.77
2023-04-23T19:56:49.572Z,14.71
2023-04-23T19:59:20.225Z,14.66
2023-04-23T20:01:47.631Z,14.60
2023-04-23T20:04:14.556Z,14.53
2023-04-23T20:06:41.364Z,14.45
2023-04-23T20:09:17.151Z,14.41
2023-04-23T20:11:44.786Z,14.37
2023-04-23T20:14:14.271Z,14.33
2023-04-23T20:16:41.106Z,14.26
2023-04-23T20:19:10.777Z,14.21
2023-04-23T20:21:38.267Z,14.14
2023-04-23T20:24:11.678Z,14.09
2023-04-23T20:26:39.235Z,14.04
2023-04-23T20:29:06.115Z,13.98
2023-04-23T20:31:33.439Z,13.93
2023-04-23T20:34:00.432Z,13.87
2023-04-23T20:36:32.609Z,13.80
2023-04-23T20:39:00.423Z,13.73
2023-04-23T20:41:30.651Z,13.67
2023-04-23T20:43:57.939Z,13.63
2023-04-23T20:46:25.298Z,13.59
2023-04-23T20:48:54.961Z,13.54
2023-04-23T20:51:22.587Z,13.46
2023-04-23T20:53:50.488Z,13.37
2023-04-23T20:56:17.632Z,13.26
2023-04-23T20:58:44.337Z,13.15
2023-04-23T21:01:11.159Z,13.08
2023-04-23T21:03:38.456Z,13.03
2023-04-23T21:06:06.204Z,12.97
2023-04-23T21:08:33.357Z,12.91
2023-04-23T21:11:00.073Z,12.86
2023-04-23T21:13:26.738Z,12.81
2023-04-23T21:15:53.573Z,12.77
2023-04-23T21:18:20.267Z,12.73
2023-04-23T21:20:46.951Z,12.66
2023-04-23T21:23:13.839Z,12.59
2023-04-23T21:25:40.513Z,12.54
2023-04-23T21:28:07.213Z,12.48
2023-04-23T21:30:50.298Z,12.40
2023-04-23T21:33:18.436Z,12.31
2023-04-23T21:35:45.186Z,12.26
2023-04-23T21:38:11.907Z,12.21
2023-04-23T21:40:38.940Z,12.16
2023-04-23T21:43:06.189Z,12.13
2023-04-23T21:45:33.266Z,12.11
2023-04-23T21:48:00.080Z,12.11
2023-04-23T21:50:27.634Z,12.08
2023-04-23T21:52:57.864Z,12.06
2023-04-23T21:55:25.655Z,12.03
2023-04-23T21:57:52.770Z,12.01
2023-04-23T22:00:20.517Z,11.99
2023-04-23T22:02:47.366Z,11.97
2023-04-23T22:05:21.119Z,11.96
2023-04-23T22:07:48.687Z,11.99
2023-04-23T22:10:16.019Z,12.02
2023-04-23T22:12:42.976Z,12.04
2023-04-23T22:15:12.432Z,12.04
2023-04-23T22:17:39.391Z,12.03
2023-04-23T22:20:07.039Z,12.00
2023-04-23T22:22:34.265Z,11.99
2023-04-23T22:25:01.609Z,11.96
2023-04-23T22:27:28.502Z,11.89
2023-04-23T22:29:55.188Z,11.81
2023-04-23T22:32:21.815Z,11.73
2023-04-23T22:34:48.509Z,11.67
2023-04-23T22:37:15.206Z,11.61
2023-04-23T22:39:42.124Z,11.51
2023-04-23T22:42:09.142Z,11.45
2023-04-23T22:44:37.153Z,11.32
2023-04-23T22:47:04.690Z,11.27
2023-04-23T22:49:32.404Z,11.23
2023-04-23T22:51:59.180Z,11.19
2023-04-23T22:54:26.611Z,11.14
2023-04-23T22:56:53.401Z,11.10
2023-04-23T22:59:20.544Z,11.05
2023-04-23T23:01:47.446Z,11.03
2023-04-23T23:04:14.229Z,11.04
2023-04-23T23:06:42.436Z,11.07
2023-04-23T23:09:09.668Z,11.09
2023-04-23T23:11:36.364Z,11.09
2023-04-23T23:14:03.734Z,11.08
2023-04-23T23:16:30.516Z,11.06
2023-04-23T23:18:57.610Z,11.05
2023-04-23T23:21:24.449Z,11.02
2023-04-23T23:23:51.314Z,10.99
2023-04-23T23:26:18.106Z,10.93
2023-04-23T23:28:44.787Z,10.88
2023-04-23T23:31:11.669Z,10.82
2023-04-23T23:33:39.068Z,10.74
2023-04-23T23:36:08.018Z,10.69
2023-04-23T23:50:08.888Z,10.83
2023-04-23T23:52:35.706Z,11.27
2023-04-23T23:55:02.637Z,11.21
2023-04-23T23:57:29.505Z,11.10
2023-04-23T23:59:57.085Z,10.98
